sensor_id;sensor_type;location;lat;lon;timestamp;pressure;altitude;pressure_sealevel;temperature;humidity
81547;BME280;71078;48.358;10.960;2023-08-24T00:02:03;96292.13;;;25.55;46.46
81547;BME280;71078;48.358;10.960;2023-08-24T00:04:24;96305.44;;;25.55;46.49
81547;BME280;71078;48.358;10.960;2023-08-24T00:06:44;96309.41;;;25.59;46.38
81547;BME280;71078;48.358;10.960;2023-08-24T00:09:05;96313.31;;;25.56;46.62
81547;BME280;71078;48.358;10.960;2023-08-24T00:11:26;96309.34;;;25.52;46.48
81547;BME280;71078;48.358;10.960;2023-08-24T00:13:47;96309.88;;;25.50;46.53
81547;BME280;71078;48.358;10.960;2023-08-24T00:16:12;96310.22;;;25.47;46.47
81547;BME280;71078;48.358;10.960;2023-08-24T00:18:32;96300.41;;;25.40;46.82
81547;BME280;71078;48.358;10.960;2023-08-24T00:20:53;96295.53;;;25.41;47.28
81547;BME280;71078;48.358;10.960;2023-08-24T00:23:14;96298.19;;;25.25;46.41
81547;BME280;71078;48.358;10.960;2023-08-24T00:25:35;96302.06;;;25.22;46.52
81547;BME280;71078;48.358;10.960;2023-08-24T00:27:56;96301.09;;;25.20;47.12
81547;BME280;71078;48.358;10.960;2023-08-24T00:30:16;96287.34;;;25.16;47.10
81547;BME280;71078;48.358;10.960;2023-08-24T00:32:37;96294.16;;;25.21;47.02
81547;BME280;71078;48.358;10.960;2023-08-24T00:34:58;96308.75;;;25.32;46.85
81547;BME280;71078;48.358;10.960;2023-08-24T00:37:19;96303.56;;;25.36;46.27
81547;BME280;71078;48.358;10.960;2023-08-24T00:39:39;96291.84;;;25.46;46.19
81547;BME280;71078;48.358;10.960;2023-08-24T00:42:00;96289.16;;;25.40;46.52
81547;BME280;71078;48.358;10.960;2023-08-24T00:44:21;96288.06;;;25.43;46.26
81547;BME280;71078;48.358;10.960;2023-08-24T00:46:42;96297.59;;;25.40;46.58
81547;BME280;71078;48.358;10.960;2023-08-24T00:49:03;96289.38;;;25.42;46.54
81547;BME280;71078;48.358;10.960;2023-08-24T00:51:24;96280.84;;;25.34;46.52
81547;BME280;71078;48.358;10.960;2023-08-24T00:53:45;96289.75;;;25.25;46.61
81547;BME280;71078;48.358;10.960;2023-08-24T00:56:06;96289.63;;;25.18;46.70
81547;BME280;71078;48.358;10.960;2023-08-24T00:58:27;96293.53;;;25.15;47.00
81547;BME280;71078;48.358;10.960;2023-08-24T01:00:52;96289.97;;;25.14;46.90
81547;BME280;71078;48.358;10.960;2023-08-24T01:03:14;96284.13;;;25.12;46.79
81547;BME280;71078;48.358;10.960;2023-08-24T01:05:35;96282.41;;;25.22;46.49
81547;BME280;71078;48.358;10.960;2023-08-24T01:07:56;96286.94;;;25.25;46.77
81547;BME280;71078;48.358;10.960;2023-08-24T01:10:17;96295.56;;;25.27;46.84
81547;BME280;71078;48.358;10.960;2023-08-24T01:15:43;96294.50;;;25.17;47.30
81547;BME280;71078;48.358;10.960;2023-08-24T01:18:14;96289.13;;;25.06;47.15
81547;BME280;71078;48.358;10.960;2023-08-24T01:20:37;96284.38;;;25.01;47.24
81547;BME280;71078;48.358;10.960;2023-08-24T01:23:07;96289.22;;;25.00;47.18
81547;BME280;71078;48.358;10.960;2023-08-24T01:25:37;96290.19;;;25.03;47.65
81547;BME280;71078;48.358;10.960;2023-08-24T01:27:59;96277.78;;;24.98;47.41
81547;BME280;71078;48.358;10.960;2023-08-24T01:30:21;96289.03;;;24.98;47.45
81547;BME280;71078;48.358;10.960;2023-08-24T01:32:42;96286.00;;;24.96;47.25
81547;BME280;71078;48.358;10.960;2023-08-24T01:35:07;96292.50;;;24.91;47.05
81547;BME280;71078;48.358;10.960;2023-08-24T01:37:28;96294.88;;;24.74;47.32
81547;BME280;71078;48.358;10.960;2023-08-24T01:40:03;96288.72;;;24.76;47.20
81547;BME280;71078;48.358;10.960;2023-08-24T01:42:34;96283.00;;;24.81;47.23
81547;BME280;71078;48.358;10.960;2023-08-24T01:44:57;96286.47;;;24.74;47.36
81547;BME280;71078;48.358;10.960;2023-08-24T01:47:22;96281.50;;;24.67;47.42
81547;BME280;71078;48.358;10.960;2023-08-24T01:49:44;96283.97;;;24.70;47.55
81547;BME280;71078;48.358;10.960;2023-08-24T01:52:05;96284.53;;;24.69;47.26
81547;BME280;71078;48.358;10.960;2023-08-24T01:54:26;96285.47;;;24.58;47.78
81547;BME280;71078;48.358;10.960;2023-08-24T01:56:47;96275.44;;;24.50;47.77
81547;BME280;71078;48.358;10.960;2023-08-24T01:59:07;96278.66;;;24.54;47.74
81547;BME280;71078;48.358;10.960;2023-08-24T02:01:28;96274.88;;;24.51;47.81
81547;BME280;71078;48.358;10.960;2023-08-24T02:03:49;96270.03;;;24.52;47.83
81547;BME280;71078;48.358;10.960;2023-08-24T02:06:09;96267.13;;;24.44;47.46
81547;BME280;71078;48.358;10.960;2023-08-24T02:08:30;96267.53;;;24.35;47.45
81547;BME280;71078;48.358;10.960;2023-08-24T02:10:51;96250.47;;;24.20;47.95
81547;BME280;71078;48.358;10.960;2023-08-24T02:13:12;96259.88;;;24.35;48.05
81547;BME280;71078;48.358;10.960;2023-08-24T02:15:32;96261.94;;;24.35;47.75
81547;BME280;71078;48.358;10.960;2023-08-24T02:17:53;96252.63;;;24.40;48.04
81547;BME280;71078;48.358;10.960;2023-08-24T02:20:14;96244.75;;;24.38;48.14
81547;BME280;71078;48.358;10.960;2023-08-24T02:22:34;96244.00;;;24.38;48.19
81547;BME280;71078;48.358;10.960;2023-08-24T02:24:55;96245.28;;;24.37;48.25
81547;BME280;71078;48.358;10.960;2023-08-24T02:27:16;96241.19;;;24.38;48.05
81547;BME280;71078;48.358;10.960;2023-08-24T02:29:36;96241.31;;;24.32;48.27
81547;BME280;71078;48.358;10.960;2023-08-24T02:31:58;96237.94;;;24.34;48.05
81547;BME280;71078;48.358;10.960;2023-08-24T02:34:19;96235.03;;;24.26;48.08
81547;BME280;71078;48.358;10.960;2023-08-24T02:36:40;96231.16;;;24.29;48.25
81547;BME280;71078;48.358;10.960;2023-08-24T02:39:00;96228.56;;;24.31;48.09
81547;BME280;71078;48.358;10.960;2023-08-24T02:41:21;96232.00;;;24.37;47.92
81547;BME280;71078;48.358;10.960;2023-08-24T02:43:42;96232.88;;;24.46;47.78
81547;BME280;71078;48.358;10.960;2023-08-24T02:46:08;96239.78;;;24.45;47.70
81547;BME280;71078;48.358;10.960;2023-08-24T02:48:30;96230.06;;;24.32;47.97
81547;BME280;71078;48.358;10.960;2023-08-24T02:50:50;96227.16;;;24.38;48.12
81547;BME280;71078;48.358;10.960;2023-08-24T02:53:11;96225.63;;;24.37;48.07
81547;BME280;71078;48.358;10.960;2023-08-24T02:55:32;96235.16;;;24.34;47.94
81547;BME280;71078;48.358;10.960;2023-08-24T02:57:53;96225.53;;;24.29;48.36
81547;BME280;71078;48.358;10.960;2023-08-24T03:00:13;96220.56;;;24.35;48.50
81547;BME280;71078;48.358;10.960;2023-08-24T03:02:34;96215.06;;;24.30;48.76
81547;BME280;71078;48.358;10.960;2023-08-24T03:04:55;96221.44;;;24.30;48.70
81547;BME280;71078;48.358;10.960;2023-08-24T03:07:16;96220.56;;;24.22;48.35
81547;BME280;71078;48.358;10.960;2023-08-24T03:09:37;96222.41;;;24.20;48.47
81547;BME280;71078;48.358;10.960;2023-08-24T03:11:57;96222.41;;;24.20;48.48
81547;BME280;71078;48.358;10.960;2023-08-24T03:14:18;96214.63;;;24.13;48.78
81547;BME280;71078;48.358;10.960;2023-08-24T03:16:39;96215.38;;;24.13;48.71
81547;BME280;71078;48.358;10.960;2023-08-24T03:19:00;96220.25;;;24.13;48.43
81547;BME280;71078;48.358;10.960;2023-08-24T03:21:20;96217.44;;;24.13;48.50
81547;BME280;71078;48.358;10.960;2023-08-24T03:23:41;96217.75;;;24.09;48.29
81547;BME280;71078;48.358;10.960;2023-08-24T03:26:02;96219.78;;;23.95;48.27
81547;BME280;71078;48.358;10.960;2023-08-24T03:28:23;96212.44;;;23.92;48.59
81547;BME280;71078;48.358;10.960;2023-08-24T03:30:49;96227.63;;;23.84;48.80
81547;BME280;71078;48.358;10.960;2023-08-24T03:33:10;96225.69;;;23.92;48.32
81547;BME280;71078;48.358;10.960;2023-08-24T03:35:32;96228.16;;;23.82;48.53
81547;BME280;71078;48.358;10.960;2023-08-24T03:37:52;96224.19;;;23.91;48.69
81547;BME280;71078;48.358;10.960;2023-08-24T03:40:13;96220.09;;;23.92;48.80
81547;BME280;71078;48.358;10.960;2023-08-24T03:42:34;96220.44;;;24.01;48.67
81547;BME280;71078;48.358;10.960;2023-08-24T03:44:54;96223.22;;;23.88;48.69
81547;BME280;71078;48.358;10.960;2023-08-24T03:47:15;96217.59;;;23.88;48.50
81547;BME280;71078;48.358;10.960;2023-08-24T03:49:35;96205.84;;;23.90;48.61
81547;BME280;71078;48.358;10.960;2023-08-24T03:51:55;96221.28;;;23.96;48.46
81547;BME280;71078;48.358;10.960;2023-08-24T03:54:17;96220.84;;;23.92;48.83
81547;BME280;71078;48.358;10.960;2023-08-24T03:56:39;96212.53;;;23.87;48.64
81547;BME280;71078;48.358;10.960;2023-08-24T03:58:59;96221.16;;;23.89;48.45
81547;BME280;71078;48.358;10.960;2023-08-24T04:01:20;96225.81;;;23.86;49.07
81547;BME280;71078;48.358;10.960;2023-08-24T04:03:41;96228.81;;;23.88;49.20
81547;BME280;71078;48.358;10.960;2023-08-24T04:06:01;96226.13;;;23.83;49.34
81547;BME280;71078;48.358;10.960;2023-08-24T04:08:22;96222.44;;;23.74;49.14
81547;BME280;71078;48.358;10.960;2023-08-24T04:10:43;96229.56;;;23.75;48.84
81547;BME280;71078;48.358;10.960;2023-08-24T04:13:03;96226.19;;;23.64;48.55
81547;BME280;71078;48.358;10.960;2023-08-24T04:15:24;96240.25;;;23.45;48.64
81547;BME280;71078;48.358;10.960;2023-08-24T04:17:45;96231.84;;;23.45;48.22
81547;BME280;71078;48.358;10.960;2023-08-24T04:20:06;96234.47;;;23.56;47.98
81547;BME280;71078;48.358;10.960;2023-08-24T04:22:28;96222.41;;;23.61;47.77
81547;BME280;71078;48.358;10.960;2023-08-24T04:24:48;96226.41;;;23.66;47.70
81547;BME280;71078;48.358;10.960;2023-08-24T04:27:09;96221.56;;;23.66;47.79
81547;BME280;71078;48.358;10.960;2023-08-24T04:29:30;96220.69;;;23.71;48.21
81547;BME280;71078;48.358;10.960;2023-08-24T04:31:50;96219.75;;;23.82;47.75
81547;BME280;71078;48.358;10.960;2023-08-24T04:34:11;96214.34;;;23.84;47.69
81547;BME280;71078;48.358;10.960;2023-08-24T04:36:32;96223.00;;;23.86;47.80
81547;BME280;71078;48.358;10.960;2023-08-24T04:38:53;96219.28;;;23.65;48.03
81547;BME280;71078;48.358;10.960;2023-08-24T04:41:14;96216.78;;;23.61;47.97
81547;BME280;71078;48.358;10.960;2023-08-24T04:43:34;96214.28;;;23.44;48.84
81547;BME280;71078;48.358;10.960;2023-08-24T04:45:57;96208.44;;;23.42;48.75
81547;BME280;71078;48.358;10.960;2023-08-24T04:48:22;96209.47;;;23.58;48.91
81547;BME280;71078;48.358;10.960;2023-08-24T04:50:44;96218.53;;;23.64;48.22
81547;BME280;71078;48.358;10.960;2023-08-24T04:53:06;96210.13;;;23.64;48.11
81547;BME280;71078;48.358;10.960;2023-08-24T04:55:27;96214.34;;;23.71;48.59
81547;BME280;71078;48.358;10.960;2023-08-24T04:57:47;96212.94;;;23.77;48.60
81547;BME280;71078;48.358;10.960;2023-08-24T05:00:09;96219.97;;;23.84;48.42
81547;BME280;71078;48.358;10.960;2023-08-24T05:02:36;96223.00;;;23.86;48.49
81547;BME280;71078;48.358;10.960;2023-08-24T05:04:57;96214.34;;;23.84;48.37
81547;BME280;71078;48.358;10.960;2023-08-24T05:07:17;96226.75;;;23.75;48.79
81547;BME280;71078;48.358;10.960;2023-08-24T05:09:38;96220.91;;;23.73;48.81
81547;BME280;71078;48.358;10.960;2023-08-24T05:12:01;96211.88;;;23.81;48.86
81547;BME280;71078;48.358;10.960;2023-08-24T05:14:22;96204.88;;;23.87;48.54
81547;BME280;71078;48.358;10.960;2023-08-24T05:16:43;96205.84;;;23.90;48.82
81547;BME280;71078;48.358;10.960;2023-08-24T05:19:03;96209.66;;;24.05;48.11
81547;BME280;71078;48.358;10.960;2023-08-24T05:21:24;96206.84;;;24.05;48.27
81547;BME280;71078;48.358;10.960;2023-08-24T05:23:45;96213.53;;;24.02;48.04
81547;BME280;71078;48.358;10.960;2023-08-24T05:26:06;96217.22;;;23.97;48.85
81547;BME280;71078;48.358;10.960;2023-08-24T05:28:28;96222.94;;;24.05;48.69
81547;BME280;71078;48.358;10.960;2023-08-24T05:30:51;96221.44;;;24.17;48.17
81547;BME280;71078;48.358;10.960;2023-08-24T05:33:11;96226.84;;;24.28;48.11
81547;BME280;71078;48.358;10.960;2023-08-24T05:35:32;96221.44;;;24.30;48.46
81547;BME280;71078;48.358;10.960;2023-08-24T05:37:52;96220.78;;;24.24;47.82
81547;BME280;71078;48.358;10.960;2023-08-24T05:40:14;96220.78;;;24.24;47.80
81547;BME280;71078;48.358;10.960;2023-08-24T05:42:34;96213.00;;;24.30;48.16
81547;BME280;71078;48.358;10.960;2023-08-24T05:44:56;96209.56;;;24.37;47.80
81547;BME280;71078;48.358;10.960;2023-08-24T05:47:17;96203.41;;;24.26;48.45
81547;BME280;71078;48.358;10.960;2023-08-24T05:49:38;96203.59;;;24.41;47.65
81547;BME280;71078;48.358;10.960;2023-08-24T05:51:58;96205.09;;;24.55;47.46
81547;BME280;71078;48.358;10.960;2023-08-24T05:54:19;96205.31;;;24.57;46.91
81547;BME280;71078;48.358;10.960;2023-08-24T05:56:39;96196.25;;;24.51;47.10
81547;BME280;71078;48.358;10.960;2023-08-24T05:59:00;96198.72;;;24.68;46.73
81547;BME280;71078;48.358;10.960;2023-08-24T06:01:22;96195.88;;;24.81;46.62
81547;BME280;71078;48.358;10.960;2023-08-24T06:03:42;96195.72;;;25.00;45.95
81547;BME280;71078;48.358;10.960;2023-08-24T06:06:03;96194.41;;;25.01;45.81
81547;BME280;71078;48.358;10.960;2023-08-24T06:08:24;96194.59;;;25.16;45.72
81547;BME280;71078;48.358;10.960;2023-08-24T06:10:45;96191.41;;;25.33;45.90
81547;BME280;71078;48.358;10.960;2023-08-24T06:13:06;96182.06;;;25.38;45.49
81547;BME280;71078;48.358;10.960;2023-08-24T06:15:26;96192.09;;;25.47;45.26
81547;BME280;71078;48.358;10.960;2023-08-24T06:17:48;96191.75;;;25.50;45.28
81547;BME280;71078;48.358;10.960;2023-08-24T06:20:12;96177.13;;;25.52;45.85
81547;BME280;71078;48.358;10.960;2023-08-24T06:22:33;96182.69;;;25.65;45.38
81547;BME280;71078;48.358;10.960;2023-08-24T06:24:53;96181.78;;;25.70;45.28
81547;BME280;71078;48.358;10.960;2023-08-24T06:27:15;96188.16;;;25.70;45.36
81547;BME280;71078;48.358;10.960;2023-08-24T06:29:35;96185.41;;;25.78;45.22
81547;BME280;71078;48.358;10.960;2023-08-24T06:31:57;96176.97;;;25.78;45.10
81547;BME280;71078;48.358;10.960;2023-08-24T06:34:17;96176.59;;;25.82;44.95
81547;BME280;71078;48.358;10.960;2023-08-24T06:36:38;96176.50;;;25.87;45.42
81547;BME280;71078;48.358;10.960;2023-08-24T06:38:59;96171.22;;;25.84;45.06
81547;BME280;71078;48.358;10.960;2023-08-24T06:41:19;96170.91;;;25.95;45.12
81547;BME280;71078;48.358;10.960;2023-08-24T06:43:40;96163.13;;;26.09;44.69
81547;BME280;71078;48.358;10.960;2023-08-24T06:46:01;96165.69;;;26.35;43.35
81547;BME280;71078;48.358;10.960;2023-08-24T06:48:22;96167.88;;;26.50;42.82
81547;BME280;71078;48.358;10.960;2023-08-24T06:50:43;96162.06;;;26.55;42.06
81547;BME280;71078;48.358;10.960;2023-08-24T06:53:04;96167.66;;;26.48;41.90
81547;BME280;71078;48.358;10.960;2023-08-24T06:55:26;96154.06;;;26.75;41.11
81547;BME280;71078;48.358;10.960;2023-08-24T06:57:48;96161.47;;;27.01;40.32
81547;BME280;71078;48.358;10.960;2023-08-24T07:00:12;96153.59;;;27.07;40.07
81547;BME280;71078;48.358;10.960;2023-08-24T07:02:35;96151.56;;;27.22;39.33
81547;BME280;71078;48.358;10.960;2023-08-24T07:04:56;96152.88;;;27.37;39.50
81547;BME280;71078;48.358;10.960;2023-08-24T07:07:17;96150.44;;;27.48;39.54
81547;BME280;71078;48.358;10.960;2023-08-24T07:09:38;96147.84;;;27.66;39.17
81547;BME280;71078;48.358;10.960;2023-08-24T07:11:58;96147.28;;;27.75;38.69
81547;BME280;71078;48.358;10.960;2023-08-24T07:14:19;96143.31;;;27.85;38.71
81547;BME280;71078;48.358;10.960;2023-08-24T07:16:40;96143.47;;;27.95;38.95
81547;BME280;71078;48.358;10.960;2023-08-24T07:19:00;96152.13;;;28.05;38.92
81547;BME280;71078;48.358;10.960;2023-08-24T07:21:21;96146.63;;;28.22;39.01
81547;BME280;71078;48.358;10.960;2023-08-24T07:23:42;96147.53;;;28.32;38.95
81547;BME280;71078;48.358;10.960;2023-08-24T07:26:03;96140.91;;;28.37;39.12
81547;BME280;71078;48.358;10.960;2023-08-24T07:28:24;96138.41;;;28.49;39.21
81547;BME280;71078;48.358;10.960;2023-08-24T07:30:45;96144.75;;;28.72;39.43
81547;BME280;71078;48.358;10.960;2023-08-24T07:33:06;96142.59;;;28.88;39.34
81547;BME280;71078;48.358;10.960;2023-08-24T07:35:27;96144.00;;;29.04;40.04
81547;BME280;71078;48.358;10.960;2023-08-24T07:37:48;96144.59;;;29.35;39.14
81547;BME280;71078;48.358;10.960;2023-08-24T07:40:09;96151.97;;;29.56;38.89
81547;BME280;71078;48.358;10.960;2023-08-24T07:42:42;96152.75;;;29.73;38.58
81547;BME280;71078;48.358;10.960;2023-08-24T07:45:03;96150.56;;;29.89;38.84
81547;BME280;71078;48.358;10.960;2023-08-24T07:47:26;96155.34;;;30.04;38.90
81547;BME280;71078;48.358;10.960;2023-08-24T07:49:46;96143.25;;;30.21;38.51
81547;BME280;71078;48.358;10.960;2023-08-24T07:52:07;96155.69;;;30.25;38.44
81547;BME280;71078;48.358;10.960;2023-08-24T07:54:28;96153.78;;;30.45;38.48
81547;BME280;71078;48.358;10.960;2023-08-24T07:56:48;96162.53;;;30.57;38.49
81547;BME280;71078;48.358;10.960;2023-08-24T07:59:09;96159.53;;;30.55;38.50
81547;BME280;71078;48.358;10.960;2023-08-24T08:01:30;96160.88;;;30.54;38.38
81547;BME280;71078;48.358;10.960;2023-08-24T08:03:52;96165.28;;;30.82;38.27
81547;BME280;71078;48.358;10.960;2023-08-24T08:06:12;96166.34;;;30.86;38.21
81547;BME280;71078;48.358;10.960;2023-08-24T08:08:34;96155.81;;;30.96;37.96
81547;BME280;71078;48.358;10.960;2023-08-24T08:10:59;96146.44;;;31.03;38.11
81547;BME280;71078;48.358;10.960;2023-08-24T08:13:20;96164.75;;;31.20;37.83
81547;BME280;71078;48.358;10.960;2023-08-24T08:15:41;96165.47;;;31.37;37.92
81547;BME280;71078;48.358;10.960;2023-08-24T08:18:01;96159.50;;;31.43;37.29
81547;BME280;71078;48.358;10.960;2023-08-24T08:20:22;96170.19;;;31.62;37.58
81547;BME280;71078;48.358;10.960;2023-08-24T08:22:44;96152.34;;;31.88;37.35
81547;BME280;71078;48.358;10.960;2023-08-24T08:25:05;96146.25;;;32.11;37.31
81547;BME280;71078;48.358;10.960;2023-08-24T08:27:26;96150.59;;;32.02;36.74
81547;BME280;71078;48.358;10.960;2023-08-24T08:29:47;96131.00;;;32.06;36.23
81547;BME280;71078;48.358;10.960;2023-08-24T08:32:08;96100.34;;;32.15;36.99
81547;BME280;71078;48.358;10.960;2023-08-24T08:34:29;96090.78;;;32.10;35.57
81547;BME280;71078;48.358;10.960;2023-08-24T08:36:49;96092.38;;;31.84;35.56
81547;BME280;71078;48.358;10.960;2023-08-24T08:39:10;96099.22;;;31.71;35.80
81547;BME280;71078;48.358;10.960;2023-08-24T08:41:33;96111.22;;;31.33;36.50
81547;BME280;71078;48.358;10.960;2023-08-24T08:44:03;96134.13;;;31.18;36.91
81547;BME280;71078;48.358;10.960;2023-08-24T08:46:25;96134.28;;;31.20;37.11
81547;BME280;71078;48.358;10.960;2023-08-24T08:48:48;96141.63;;;31.23;37.19
81547;BME280;71078;48.358;10.960;2023-08-24T08:51:11;96133.38;;;31.18;37.12
81547;BME280;71078;48.358;10.960;2023-08-24T08:53:34;96140.13;;;31.22;37.72
81547;BME280;71078;48.358;10.960;2023-08-24T08:55:55;96129.03;;;31.43;37.62
81547;BME280;71078;48.358;10.960;2023-08-24T08:58:19;96120.41;;;31.61;37.62
81547;BME280;71078;48.358;10.960;2023-08-24T09:00:40;96120.56;;;31.63;37.43
81547;BME280;71078;48.358;10.960;2023-08-24T09:03:02;96113.97;;;31.51;37.20
81547;BME280;71078;48.358;10.960;2023-08-24T09:05:24;96112.78;;;31.54;37.34
81547;BME280;71078;48.358;10.960;2023-08-24T09:07:47;96111.16;;;31.60;37.64
81547;BME280;71078;48.358;10.960;2023-08-24T09:10:08;96101.00;;;31.67;37.92
81547;BME280;71078;48.358;10.960;2023-08-24T09:12:33;96101.22;;;31.88;37.66
81547;BME280;71078;48.358;10.960;2023-08-24T09:14:54;96100.63;;;32.28;37.36
81547;BME280;71078;48.358;10.960;2023-08-24T09:17:21;96086.56;;;32.59;36.63
81547;BME280;71078;48.358;10.960;2023-08-24T09:19:42;96080.84;;;32.79;36.23
81547;BME280;71078;48.358;10.960;2023-08-24T09:22:03;96079.03;;;32.93;36.04
81547;BME280;71078;48.358;10.960;2023-08-24T09:24:32;96092.91;;;33.08;35.83
81547;BME280;71078;48.358;10.960;2023-08-24T09:26:53;96098.28;;;33.14;35.35
81547;BME280;71078;48.358;10.960;2023-08-24T09:29:15;96098.31;;;33.04;35.15
81547;BME280;71078;48.358;10.960;2023-08-24T09:31:36;96092.97;;;32.79;35.58
81547;BME280;71078;48.358;10.960;2023-08-24T09:34:00;96092.50;;;32.92;35.40
81547;BME280;71078;48.358;10.960;2023-08-24T09:36:21;96075.44;;;33.33;35.38
81547;BME280;71078;48.358;10.960;2023-08-24T09:38:46;96075.38;;;33.43;34.85
81547;BME280;71078;48.358;10.960;2023-08-24T09:41:10;96070.78;;;33.59;34.05
81547;BME280;71078;48.358;10.960;2023-08-24T09:43:31;96067.38;;;33.82;34.13
81547;BME280;71078;48.358;10.960;2023-08-24T09:45:54;96055.25;;;33.72;34.03
81547;BME280;71078;48.358;10.960;2023-08-24T09:48:15;96056.72;;;33.82;33.69
81547;BME280;71078;48.358;10.960;2023-08-24T09:50:37;96059.00;;;33.74;33.29
81547;BME280;71078;48.358;10.960;2023-08-24T09:53:01;96057.66;;;33.96;33.32
81547;BME280;71078;48.358;10.960;2023-08-24T09:55:24;96060.78;;;34.22;32.75
81547;BME280;71078;48.358;10.960;2023-08-24T09:57:48;96057.63;;;34.39;32.60
81547;BME280;71078;48.358;10.960;2023-08-24T10:00:13;96050.72;;;34.54;32.15
81547;BME280;71078;48.358;10.960;2023-08-24T10:02:36;96049.81;;;34.40;31.88
81547;BME280;71078;48.358;10.960;2023-08-24T10:04:58;96045.34;;;34.37;32.02
81547;BME280;71078;48.358;10.960;2023-08-24T10:07:22;96038.72;;;34.01;32.25
81547;BME280;71078;48.358;10.960;2023-08-24T10:09:54;96041.53;;;34.44;32.19
81547;BME280;71078;48.358;10.960;2023-08-24T10:12:20;96029.91;;;34.63;31.30
81547;BME280;71078;48.358;10.960;2023-08-24T10:14:49;96031.78;;;34.25;31.31
81547;BME280;71078;48.358;10.960;2023-08-24T10:17:14;96031.81;;;34.82;30.80
81547;BME280;71078;48.358;10.960;2023-08-24T10:19:36;96022.66;;;35.07;30.55
81547;BME280;71078;48.358;10.960;2023-08-24T10:21:59;96021.41;;;35.10;30.97
81547;BME280;71078;48.358;10.960;2023-08-24T10:24:20;96021.41;;;35.10;30.77
81547;BME280;71078;48.358;10.960;2023-08-24T10:26:42;96019.63;;;34.25;31.35
81547;BME280;71078;48.358;10.960;2023-08-24T10:29:03;96016.06;;;34.69;31.36
81547;BME280;71078;48.358;10.960;2023-08-24T10:31:24;96017.94;;;35.11;30.24
81547;BME280;71078;48.358;10.960;2023-08-24T10:33:46;96021.09;;;35.15;29.82
81547;BME280;71078;48.358;10.960;2023-08-24T10:36:07;96008.78;;;35.24;29.95
81547;BME280;71078;48.358;10.960;2023-08-24T10:38:29;96010.75;;;35.45;29.72
81547;BME280;71078;48.358;10.960;2023-08-24T10:40:50;96002.19;;;35.34;30.15
81547;BME280;71078;48.358;10.960;2023-08-24T10:43:11;95997.72;;;35.31;30.68
81547;BME280;71078;48.358;10.960;2023-08-24T10:45:58;95990.50;;;34.83;29.92
81547;BME280;71078;48.358;10.960;2023-08-24T10:48:19;95987.91;;;35.10;29.66
81547;BME280;71078;48.358;10.960;2023-08-24T10:50:39;95981.31;;;35.43;28.48
81547;BME280;71078;48.358;10.960;2023-08-24T10:53:00;95981.69;;;35.61;28.35
81547;BME280;71078;48.358;10.960;2023-08-24T10:55:23;95980.84;;;35.23;29.14
81547;BME280;71078;48.358;10.960;2023-08-24T10:57:44;95971.22;;;35.65;28.81
81547;BME280;71078;48.358;10.960;2023-08-24T11:00:08;95967.53;;;35.88;27.91
81547;BME280;71078;48.358;10.960;2023-08-24T11:02:30;95971.25;;;35.91;27.47
81547;BME280;71078;48.358;10.960;2023-08-24T11:05:20;95969.53;;;36.23;27.55
81547;BME280;71078;48.358;10.960;2023-08-24T11:07:59;95962.19;;;36.45;27.56
81547;BME280;71078;48.358;10.960;2023-08-24T11:10:22;95956.72;;;36.24;27.12
81547;BME280;71078;48.358;10.960;2023-08-24T11:15:48;95959.72;;;36.39;26.68
81547;BME280;71078;48.358;10.960;2023-08-24T11:18:22;95957.63;;;36.79;26.16
81547;BME280;71078;48.358;10.960;2023-08-24T11:20:45;95954.50;;;36.61;25.38
81547;BME280;71078;48.358;10.960;2023-08-24T11:23:07;95961.13;;;36.13;26.04
81547;BME280;71078;48.358;10.960;2023-08-24T11:25:28;95945.91;;;36.47;25.47
81547;BME280;71078;48.358;10.960;2023-08-24T11:27:48;95941.47;;;36.33;25.63
81547;BME280;71078;48.358;10.960;2023-08-24T11:30:10;95932.22;;;35.95;26.88
81547;BME280;71078;48.358;10.960;2023-08-24T11:32:30;95930.25;;;35.49;26.30
81547;BME280;71078;48.358;10.960;2023-08-24T11:34:51;95933.38;;;36.15;26.65
81547;BME280;71078;48.358;10.960;2023-08-24T11:37:18;95938.63;;;36.33;26.40
81547;BME280;71078;48.358;10.960;2023-08-24T11:39:45;95934.09;;;36.41;25.59
81547;BME280;71078;48.358;10.960;2023-08-24T11:42:06;95933.38;;;36.15;26.29
81547;BME280;71078;48.358;10.960;2023-08-24T11:44:44;95924.94;;;36.70;25.65
81547;BME280;71078;48.358;10.960;2023-08-24T11:47:06;95935.78;;;36.07;25.90
81547;BME280;71078;48.358;10.960;2023-08-24T11:49:26;95930.69;;;36.06;26.96
81547;BME280;71078;48.358;10.960;2023-08-24T11:51:47;95931.41;;;36.57;26.14
81547;BME280;71078;48.358;10.960;2023-08-24T11:54:11;95919.09;;;36.15;24.65
81547;BME280;71078;48.358;10.960;2023-08-24T11:56:32;95919.25;;;36.45;25.17
81547;BME280;71078;48.358;10.960;2023-08-24T11:58:52;95921.81;;;36.92;24.69
81547;BME280;71078;48.358;10.960;2023-08-24T12:01:13;95918.38;;;36.81;24.92
81547;BME280;71078;48.358;10.960;2023-08-24T12:03:35;95918.72;;;37.01;24.55
81547;BME280;71078;48.358;10.960;2023-08-24T12:06:02;95921.16;;;36.40;24.44
81547;BME280;71078;48.358;10.960;2023-08-24T12:08:30;95918.09;;;36.11;24.74
81547;BME280;71078;48.358;10.960;2023-08-24T12:10:51;95909.16;;;35.79;25.37
81547;BME280;71078;48.358;10.960;2023-08-24T12:13:12;95904.38;;;35.10;26.29
81547;BME280;71078;48.358;10.960;2023-08-24T12:15:34;95906.06;;;35.38;26.25
81547;BME280;71078;48.358;10.960;2023-08-24T12:17:55;95902.22;;;36.08;26.53
81547;BME280;71078;48.358;10.960;2023-08-24T12:20:23;95892.38;;;36.50;24.67
81547;BME280;71078;48.358;10.960;2023-08-24T12:22:43;95901.63;;;36.76;24.03
81547;BME280;71078;48.358;10.960;2023-08-24T12:25:04;95889.75;;;36.68;23.96
81547;BME280;71078;48.358;10.960;2023-08-24T12:27:26;95891.22;;;35.91;24.50
81547;BME280;71078;48.358;10.960;2023-08-24T12:29:48;95889.50;;;35.60;24.81